Time;durP1;ratioP1;P1;durP2;ratioP2;P2;SDS_P1;SDS_P2;PMS_P1;PMS_P2;Temp;Humidity;BMP_temperature;BMP_pressure;BME280_temperature;BME280_humidity;BME280_pressure;Samples;Min_cycle;Max_cycle;Signal;HPM_P1;HPM_P2
2023/01/03 00:00:47;;;;;;;72.15;20.42;;;8.00;99.90;;;;;;4925315;29;20193;-86
2023/01/03 00:03:16;;;;;;;78.72;16.23;;;8.00;99.90;;;;;;4925221;29;20192;-86
2023/01/03 00:05:43;;;;;;;73.00;17.23;;;8.10;99.90;;;;;;4924583;29;20236;-86
2023/01/03 00:08:08;;;;;;;69.43;15.18;;;8.10;99.90;;;;;;4924326;29;20177;-86
2023/01/03 00:10:34;;;;;;;70.57;15.43;;;8.10;99.90;;;;;;4924729;29;20193;-86
2023/01/03 00:13:00;;;;;;;70.63;15.73;;;8.10;99.90;;;;;;4925369;29;20165;-86
2023/01/03 00:15:25;;;;;;;75.33;17.40;;;8.10;99.90;;;;;;4924317;29;20173;-86
2023/01/03 00:17:52;;;;;;;71.90;15.63;;;8.10;99.90;;;;;;4908406;29;20612;-86
2023/01/03 00:20:18;;;;;;;72.28;15.25;;;8.10;99.90;;;;;;4925140;29;20256;-86
2023/01/03 00:22:44;;;;;;;70.55;15.25;;;8.10;99.90;;;;;;4925617;29;20324;-86
2023/01/03 00:25:09;;;;;;;70.87;14.20;;;8.10;99.90;;;;;;4924951;29;20198;-86
2023/01/03 00:27:35;;;;;;;72.13;16.37;;;8.10;99.90;;;;;;4908145;29;20196;-86
2023/01/03 00:30:01;;;;;;;75.87;15.07;;;8.10;99.90;;;;;;4925029;29;20453;-86
2023/01/03 00:32:27;;;;;;;69.90;13.73;;;8.10;99.90;;;;;;4925142;29;20414;-86
2023/01/03 00:34:52;;;;;;;71.60;15.50;;;8.10;99.90;;;;;;4924896;29;20685;-86
2023/01/03 00:37:18;;;;;;;70.53;15.73;;;8.10;99.90;;;;;;4924844;29;20172;-86
2023/01/03 00:39:44;;;;;;;70.70;19.30;;;8.10;99.90;;;;;;4924431;29;20201;-86
2023/01/03 00:42:10;;;;;;;73.20;19.80;;;8.00;99.90;;;;;;4907898;29;20176;-86
2023/01/03 00:44:35;;;;;;;74.43;21.75;;;8.00;99.90;;;;;;4909023;29;20173;-86
2023/01/03 00:47:01;;;;;;;72.87;21.50;;;8.00;99.90;;;;;;4924905;29;20169;-86
2023/01/03 00:49:27;;;;;;;72.20;21.60;;;7.90;99.90;;;;;;4907713;29;20170;-86
2023/01/03 00:51:53;;;;;;;72.10;21.50;;;8.00;99.90;;;;;;4924456;29;20208;-85
2023/01/03 00:54:19;;;;;;;73.17;20.30;;;7.90;99.90;;;;;;4924367;29;20173;-86
2023/01/03 00:56:47;;;;;;;76.15;19.90;;;7.90;99.90;;;;;;4907656;29;20165;-86
2023/01/03 00:59:14;;;;;;;72.38;19.00;;;7.90;99.90;;;;;;4924236;29;20203;-86
2023/01/03 01:01:45;;;;;;;72.10;20.25;;;7.90;99.90;;;;;;4924967;29;20180;-86
2023/01/03 01:04:19;;;;;;;72.70;16.10;;;7.80;99.90;;;;;;4924146;29;20158;-86
2023/01/03 01:06:48;;;;;;;71.38;17.00;;;7.90;99.90;;;;;;4924731;29;20164;-86
2023/01/03 01:09:17;;;;;;;70.90;16.10;;;7.90;99.90;;;;;;4924383;29;20178;-86
2023/01/03 01:11:43;;;;;;;74.15;14.18;;;7.80;99.90;;;;;;4924647;29;20213;-86
2023/01/03 01:14:19;;;;;;;73.68;15.55;;;7.90;99.90;;;;;;4908013;29;20170;-86
2023/01/03 01:16:54;;;;;;;71.28;16.55;;;7.80;99.90;;;;;;4907624;29;20165;-86
2023/01/03 01:19:24;;;;;;;74.55;16.75;;;7.90;99.90;;;;;;4924186;29;20153;-86
2023/01/03 01:21:50;;;;;;;71.38;18.38;;;7.80;99.90;;;;;;4907110;29;20192;-86
2023/01/03 01:24:16;;;;;;;74.63;17.95;;;7.80;99.90;;;;;;4907296;29;20177;-86
2023/01/03 01:26:42;;;;;;;75.43;20.17;;;7.80;99.90;;;;;;4906460;29;20561;-86
2023/01/03 01:29:13;;;;;;;72.93;20.17;;;7.70;99.90;;;;;;4906698;29;20173;-86
2023/01/03 01:31:39;;;;;;;72.72;19.48;;;7.60;99.90;;;;;;4923923;29;20209;-86
2023/01/03 01:34:05;;;;;;;71.53;21.08;;;7.60;99.90;;;;;;4923264;29;20166;-86
2023/01/03 01:36:36;;;;;;;70.28;20.80;;;7.60;99.90;;;;;;4923778;29;20185;-86
2023/01/03 01:39:09;;;;;;;74.65;22.98;;;7.60;99.90;;;;;;4923243;29;20530;-86
2023/01/03 01:44:43;;;;;;;71.30;21.85;;;7.40;99.90;;;;;;4923501;29;20221;-86
2023/01/03 01:47:12;;;;;;;73.72;22.67;;;7.40;99.90;;;;;;4906106;29;20173;-86
2023/01/03 01:49:38;;;;;;;70.85;19.73;;;7.40;99.90;;;;;;4922538;29;20189;-86
2023/01/03 01:52:03;;;;;;;70.53;17.50;;;7.30;99.90;;;;;;4922786;29;20523;-86
2023/01/03 01:54:30;;;;;;;74.50;17.20;;;7.30;99.90;;;;;;4922945;29;20157;-86
2023/01/03 01:56:56;;;;;;;70.15;17.25;;;7.40;99.90;;;;;;4923263;29;20173;-85
2023/01/03 01:59:22;;;;;;;71.03;17.77;;;7.40;99.90;;;;;;4923113;29;20697;-85
2023/01/03 02:01:49;;;;;;;70.20;16.87;;;7.50;99.90;;;;;;4923577;29;20185;-85
2023/01/03 02:04:24;;;;;;;71.50;14.60;;;7.40;99.90;;;;;;4923484;29;20181;-85
2023/01/03 02:06:52;;;;;;;68.72;14.55;;;7.40;99.90;;;;;;4923519;29;20164;-85
2023/01/03 02:09:18;;;;;;;70.22;12.52;;;7.40;99.90;;;;;;4906553;29;20233;-85
2023/01/03 02:13:04;;;;;;;69.45;14.65;;;7.40;99.90;;;;;;4922084;29;20220;-84
2023/01/03 02:14:53;;;;;;;69.75;13.38;;;7.50;99.90;;;;;;4921893;29;20177;-85
2023/01/03 02:17:57;;;;;;;73.32;13.30;;;7.50;99.90;;;;;;4906006;29;20241;-85
2023/01/03 02:20:51;;;;;;;69.80;14.80;;;7.50;99.90;;;;;;4867547;29;20201;-86
2023/01/03 02:23:53;;;;;;;72.10;13.65;;;7.50;99.90;;;;;;4921160;29;20163;-86
2023/01/03 02:26:34;;;;;;;68.80;15.65;;;7.50;99.90;;;;;;4922285;29;20305;-83
2023/01/03 02:29:11;;;;;;;70.03;13.65;;;7.50;99.90;;;;;;4921963;29;20163;-84
2023/01/03 02:31:58;;;;;;;71.47;14.60;;;7.50;99.90;;;;;;4922204;29;20185;-86
2023/01/03 02:34:56;;;;;;;72.10;13.80;;;7.50;99.90;;;;;;4921549;29;20158;-86
2023/01/03 02:37:51;;;;;;;69.22;12.90;;;7.50;99.90;;;;;;4904173;29;20157;-86
2023/01/03 02:40:27;;;;;;;69.00;13.70;;;7.50;99.90;;;;;;4926142;29;20208;-84
2023/01/03 02:43:20;;;;;;;68.38;13.90;;;7.40;99.90;;;;;;4927006;29;20161;-85
2023/01/03 02:46:01;;;;;;;72.38;14.65;;;7.50;99.90;;;;;;4909262;29;20208;-85
2023/01/03 02:48:59;;;;;;;70.28;13.15;;;7.40;99.90;;;;;;4909692;29;20157;-85
2023/01/03 02:51:32;;;;;;;69.78;11.65;;;7.30;99.90;;;;;;4900482;29;20220;-86
2023/01/03 02:53:59;;;;;;;69.35;13.65;;;7.20;99.90;;;;;;4910035;29;20166;-86
2023/01/03 02:56:42;;;;;;;73.32;16.25;;;7.20;99.90;;;;;;4909759;29;20169;-85
2023/01/03 02:59:14;;;;;;;70.30;18.58;;;7.20;99.90;;;;;;4909067;29;20229;-85
2023/01/03 03:01:43;;;;;;;69.15;16.80;;;7.20;99.90;;;;;;4926324;29;20160;-87
2023/01/03 03:04:13;;;;;;;74.00;20.05;;;7.20;99.90;;;;;;4926677;29;20169;-84
2023/01/03 03:07:27;;;;;;;70.57;19.15;;;7.00;99.90;;;;;;4910031;29;20253;-86
2023/01/03 03:15:34;;;;;;;74.50;19.67;;;6.90;99.90;;;;;;4906840;29;20589;-86
2023/01/03 03:18:11;;;;;;;71.70;22.65;;;6.80;99.90;;;;;;4925375;29;20153;-86
2023/01/03 03:26:16;;;;;;;71.53;18.23;;;6.60;99.90;;;;;;4925739;29;20689;-86
2023/01/03 03:28:46;;;;;;;69.68;14.52;;;6.50;99.90;;;;;;4925125;29;20188;-86
2023/01/03 03:31:22;;;;;;;69.90;13.93;;;6.50;99.90;;;;;;4925522;29;20204;-86
2023/01/03 03:34:17;;;;;;;74.65;13.05;;;6.40;99.90;;;;;;4925481;29;20157;-86
2023/01/03 03:36:54;;;;;;;69.43;12.32;;;6.40;99.90;;;;;;4925302;29;20149;-86
2023/01/03 03:45:23;;;;;;;69.03;13.85;;;6.50;99.90;;;;;;4925356;29;20577;-86
2023/01/03 03:48:14;;;;;;;69.45;16.75;;;6.50;99.90;;;;;;4925479;29;20161;-86
2023/01/03 03:50:45;;;;;;;72.15;16.17;;;6.50;99.90;;;;;;4924360;29;20193;-86
2023/01/03 03:53:15;;;;;;;70.13;15.60;;;6.50;99.90;;;;;;4907763;29;20570;-86
2023/01/03 03:55:52;;;;;;;73.30;14.82;;;6.50;99.90;;;;;;4925135;29;20162;-86
2023/01/03 03:58:22;;;;;;;69.55;14.60;;;6.50;99.90;;;;;;4925772;29;20626;-86
2023/01/03 04:00:50;;;;;;;69.28;12.18;;;6.60;99.90;;;;;;4924901;29;20238;-86
2023/01/03 04:03:20;;;;;;;69.55;14.55;;;6.60;99.90;;;;;;4925630;29;20672;-86
2023/01/03 04:05:54;;;;;;;70.22;13.75;;;6.60;99.90;;;;;;4908192;29;20177;-86
2023/01/03 04:08:20;;;;;;;72.43;14.02;;;6.60;99.90;;;;;;4924510;29;20586;-86
2023/01/03 04:10:46;;;;;;;71.97;11.67;;;6.60;99.90;;;;;;4925089;29;20220;-86
2023/01/03 04:13:12;;;;;;;68.07;13.40;;;6.60;99.90;;;;;;4925145;29;20417;-86
2023/01/03 04:15:37;;;;;;;68.77;12.17;;;6.60;99.90;;;;;;4925125;29;20173;-86
2023/01/03 04:18:03;;;;;;;67.93;12.17;;;6.50;99.90;;;;;;4908248;29;20176;-86
2023/01/03 04:20:29;;;;;;;69.20;12.10;;;6.60;99.90;;;;;;4924926;29;20196;-86
2023/01/03 04:22:55;;;;;;;67.97;11.90;;;6.50;99.90;;;;;;4925050;29;20169;-86
2023/01/03 04:25:20;;;;;;;69.00;11.57;;;6.50;99.90;;;;;;4924762;29;20653;-86
2023/01/03 04:27:46;;;;;;;71.43;11.60;;;6.40;99.90;;;;;;4907979;29;20188;-86
2023/01/03 04:30:12;;;;;;;72.57;13.27;;;6.40;99.90;;;;;;4924450;29;20193;-86
2023/01/03 04:32:39;;;;;;;72.30;15.48;;;6.40;99.90;;;;;;4924653;29;20249;-86
2023/01/03 04:35:05;;;;;;;76.97;15.93;;;6.40;99.90;;;;;;4907653;29;20169;-86
2023/01/03 04:37:30;;;;;;;84.82;17.55;;;6.40;99.90;;;;;;4907462;29;20612;-86
2023/01/03 04:39:56;;;;;;;71.77;16.57;;;6.40;99.90;;;;;;4907506;29;20209;-86
2023/01/03 04:45:09;;;;;;;70.75;18.15;;;6.50;99.90;;;;;;4927118;29;20186;-85
2023/01/03 04:47:34;;;;;;;80.15;17.15;;;6.60;99.90;;;;;;4907380;29;20177;-86
2023/01/03 04:50:00;;;;;;;72.43;18.20;;;6.60;99.90;;;;;;4923923;29;20243;-86
2023/01/03 04:52:26;;;;;;;73.47;16.70;;;6.70;99.90;;;;;;4907077;29;20177;-86
2023/01/03 04:54:54;;;;;;;72.13;17.67;;;6.80;99.90;;;;;;4923695;29;20249;-86
2023/01/03 04:57:19;;;;;;;72.38;16.98;;;6.90;99.90;;;;;;4906717;29;20192;-86
2023/01/03 04:59:45;;;;;;;74.80;16.20;;;6.90;99.90;;;;;;4924126;29;20186;-86
2023/01/03 05:02:11;;;;;;;74.47;18.90;;;6.90;99.90;;;;;;4923625;29;20173;-86
2023/01/03 05:04:37;;;;;;;72.97;19.00;;;7.00;99.90;;;;;;4923817;29;20173;-86
2023/01/03 05:07:02;;;;;;;73.93;20.43;;;6.90;99.90;;;;;;4906580;29;20165;-86
2023/01/03 05:09:28;;;;;;;70.30;15.70;;;7.00;99.90;;;;;;4906422;29;20197;-86
2023/01/03 05:11:54;;;;;;;72.57;18.57;;;7.00;99.90;;;;;;4906470;29;20208;-86
2023/01/03 05:14:20;;;;;;;70.68;18.48;;;7.00;99.90;;;;;;4923809;29;20221;-86
2023/01/03 05:16:45;;;;;;;70.77;14.03;;;7.00;99.90;;;;;;4923897;29;20189;-86
2023/01/03 05:19:11;;;;;;;71.40;13.43;;;7.10;99.90;;;;;;4923114;29;20688;-86
2023/01/03 05:27:06;;;;;;;74.50;17.08;;;7.10;99.90;;;;;;4923873;29;20160;-85
2023/01/03 05:29:35;;;;;;;71.37;17.97;;;7.10;99.90;;;;;;4906616;29;20194;-86
2023/01/03 05:32:00;;;;;;;73.75;19.27;;;7.10;99.90;;;;;;4924045;29;20189;-86
2023/01/03 05:34:26;;;;;;;75.47;15.60;;;7.10;99.90;;;;;;4923939;29;20170;-86
2023/01/03 05:36:52;;;;;;;69.37;15.00;;;7.10;99.90;;;;;;4923612;29;20169;-86
2023/01/03 05:39:17;;;;;;;70.57;13.10;;;7.10;99.90;;;;;;4923323;29;20193;-85
2023/01/03 05:41:58;;;;;;;73.00;12.60;;;7.10;99.90;;;;;;4924059;29;20169;-86
2023/01/03 05:44:24;;;;;;;67.35;9.90;;;7.10;99.90;;;;;;4923439;29;20157;-86
2023/01/03 05:46:50;;;;;;;67.90;9.68;;;7.10;99.90;;;;;;4923566;29;20176;-86
2023/01/03 05:49:16;;;;;;;71.10;11.70;;;7.10;99.90;;;;;;4922955;29;20169;-86
2023/01/03 05:51:42;;;;;;;71.63;13.47;;;7.00;99.90;;;;;;4923258;29;20185;-86
2023/01/03 05:54:11;;;;;;;74.78;16.13;;;7.00;99.90;;;;;;4923547;29;20166;-86
2023/01/03 05:56:37;;;;;;;71.25;13.25;;;6.80;99.90;;;;;;4923214;29;20180;-86
2023/01/03 05:59:03;;;;;;;70.07;14.85;;;6.80;99.90;;;;;;4905788;29;20187;-86
2023/01/03 06:01:30;;;;;;;71.30;14.00;;;6.70;99.90;;;;;;4923255;29;20684;-86
2023/01/03 06:03:56;;;;;;;68.00;12.38;;;6.60;99.90;;;;;;4923075;29;20180;-86
2023/01/03 06:06:22;;;;;;;71.10;11.63;;;6.60;99.90;;;;;;4922842;29;20557;-87
2023/01/03 06:08:48;;;;;;;77.50;11.70;;;6.70;99.90;;;;;;4923622;29;20506;-86
2023/01/03 06:11:15;;;;;;;71.95;12.73;;;6.70;99.90;;;;;;4923544;29;20669;-86
2023/01/03 06:13:41;;;;;;;69.65;9.98;;;6.70;99.90;;;;;;4905637;29;20177;-86
2023/01/03 06:18:54;;;;;;;68.00;12.50;;;6.70;99.90;;;;;;4923060;29;20409;-86
2023/01/03 06:21:20;;;;;;;67.40;10.10;;;6.70;99.90;;;;;;4906037;29;20597;-86
2023/01/03 06:23:47;;;;;;;69.13;12.20;;;6.70;99.90;;;;;;4922422;29;20413;-86
2023/01/03 06:26:17;;;;;;;67.63;10.45;;;6.80;99.90;;;;;;4922722;29;20660;-86
2023/01/03 06:28:43;;;;;;;69.70;10.50;;;6.70;99.90;;;;;;4923554;29;20177;-86
2023/01/03 06:31:09;;;;;;;73.37;10.63;;;6.80;99.90;;;;;;4905884;29;20215;-86
2023/01/03 06:33:38;;;;;;;74.43;11.80;;;6.80;99.90;;;;;;4922147;29;20165;-86
2023/01/03 06:36:06;;;;;;;69.70;11.27;;;6.80;99.90;;;;;;4905660;29;20169;-87
2023/01/03 06:38:35;;;;;;;70.40;13.75;;;6.70;99.90;;;;;;4921725;29;20173;-85
2023/01/03 06:41:02;;;;;;;69.72;12.88;;;6.70;99.90;;;;;;4922136;29;20204;-86
2023/01/03 06:43:28;;;;;;;69.45;11.93;;;6.70;99.90;;;;;;4922461;29;20581;-85
2023/01/03 06:54:21;;;;;;;69.00;16.10;;;6.70;99.90;;;;;;4922846;29;20164;-86
2023/01/03 06:56:47;;;;;;;71.00;14.25;;;6.60;99.90;;;;;;4905363;29;20189;-86
2023/01/03 06:59:12;;;;;;;69.47;16.10;;;6.60;99.90;;;;;;4922324;29;20668;-85
2023/01/03 07:01:38;;;;;;;71.27;17.57;;;6.60;99.90;;;;;;4922209;29;20402;-86
2023/01/03 07:04:04;;;;;;;68.57;13.95;;;6.60;99.90;;;;;;4922503;29;20162;-86
2023/01/03 07:06:30;;;;;;;69.80;12.07;;;6.60;99.90;;;;;;4922681;29;20252;-86
2023/01/03 07:08:56;;;;;;;69.17;14.10;;;6.60;99.90;;;;;;4922036;29;20953;-86
2023/01/03 07:11:25;;;;;;;69.37;11.90;;;6.60;99.90;;;;;;4921909;29;20534;-86
2023/01/03 07:13:57;;;;;;;66.70;10.30;;;6.60;99.90;;;;;;4905218;29;20172;-86
2023/01/03 07:16:30;;;;;;;68.25;9.40;;;6.60;99.90;;;;;;4904837;29;20169;-86
2023/01/03 07:18:56;;;;;;;69.30;11.73;;;6.60;99.90;;;;;;4921734;29;20154;-85
2023/01/03 07:21:23;;;;;;;68.18;12.70;;;6.60;99.90;;;;;;4906207;29;20201;-86
2023/01/03 07:23:51;;;;;;;68.50;12.57;;;6.60;99.90;;;;;;4920817;29;20166;-85
2023/01/03 07:26:17;;;;;;;73.65;12.20;;;6.60;99.90;;;;;;4907334;29;20180;-85
2023/01/03 07:28:42;;;;;;;68.57;9.73;;;6.60;99.90;;;;;;4908300;29;20172;-85
2023/01/03 07:31:08;;;;;;;67.90;11.87;;;6.60;99.90;;;;;;4925135;29;20197;-85
2023/01/03 07:33:36;;;;;;;72.40;11.90;;;6.60;99.90;;;;;;4925479;29;20613;-85
2023/01/03 07:36:04;;;;;;;69.30;10.65;;;6.60;99.90;;;;;;4908312;29;20267;-85
2023/01/03 07:38:30;;;;;;;68.57;10.88;;;6.70;99.90;;;;;;4925423;29;20173;-86
2023/01/03 07:41:00;;;;;;;68.17;10.40;;;6.70;99.90;;;;;;4907450;29;20213;-86
2023/01/03 07:43:35;;;;;;;68.40;12.82;;;6.70;99.90;;;;;;4925761;29;20801;-86
2023/01/03 07:46:29;;;;;;;71.25;11.40;;;6.70;99.90;;;;;;4925462;29;20261;-86
2023/01/03 07:48:57;;;;;;;70.57;11.52;;;6.80;99.90;;;;;;4923379;29;20383;-85
2023/01/03 07:51:23;;;;;;;68.68;11.20;;;6.80;99.90;;;;;;4908410;29;20208;-86
2023/01/03 07:53:51;;;;;;;68.90;11.80;;;6.80;99.90;;;;;;4925193;29;20170;-86
2023/01/03 07:56:20;;;;;;;71.43;12.73;;;6.80;99.90;;;;;;4908266;29;20659;-86
2023/01/03 07:58:47;;;;;;;72.07;12.48;;;6.90;99.90;;;;;;4925334;29;20193;-85
2023/01/03 08:01:16;;;;;;;74.60;12.85;;;6.90;99.90;;;;;;4907803;29;20197;-85
2023/01/03 08:03:44;;;;;;;69.65;11.75;;;7.00;99.90;;;;;;4907878;29;20176;-86
2023/01/03 08:06:17;;;;;;;71.35;10.27;;;6.90;99.90;;;;;;4924816;29;20256;-85
2023/01/03 08:08:43;;;;;;;70.38;10.07;;;7.00;99.90;;;;;;4924478;29;20165;-85
2023/01/03 08:14:14;;;;;;;68.57;10.52;;;7.10;99.90;;;;;;4884999;29;20450;-85
2023/01/03 08:16:39;;;;;;;69.23;10.97;;;7.20;99.90;;;;;;4899208;29;20181;-85
2023/01/03 08:19:05;;;;;;;67.57;12.90;;;7.20;99.90;;;;;;4924971;29;20150;-85
2023/01/03 08:21:31;;;;;;;70.67;16.03;;;7.30;99.90;;;;;;4924807;29;20248;-85
2023/01/03 08:23:56;;;;;;;69.77;14.73;;;7.40;99.90;;;;;;4907243;29;20842;-85
2023/01/03 08:26:22;;;;;;;68.17;14.17;;;7.40;99.90;;;;;;4924412;29;20197;-85
2023/01/03 08:28:48;;;;;;;69.40;14.67;;;7.40;99.90;;;;;;4924735;29;20173;-85
2023/01/03 08:31:26;;;;;;;73.10;16.93;;;7.40;99.90;;;;;;4907377;29;20193;-84
2023/01/03 08:34:02;;;;;;;70.43;15.57;;;7.40;99.90;;;;;;4924492;29;20165;-85
2023/01/03 08:36:33;;;;;;;73.22;16.17;;;7.40;99.90;;;;;;4906759;29;20169;-85
2023/01/03 08:39:10;;;;;;;69.78;17.42;;;7.40;99.90;;;;;;4906671;29;20196;-85
2023/01/03 08:41:43;;;;;;;70.40;14.40;;;7.40;99.90;;;;;;4906636;29;20172;-85
2023/01/03 08:44:10;;;;;;;69.82;15.30;;;7.40;99.90;;;;;;4906848;29;20220;-85
2023/01/03 08:46:39;;;;;;;69.80;15.20;;;7.40;99.90;;;;;;4923387;29;20188;-85
2023/01/03 08:49:09;;;;;;;70.25;15.18;;;7.40;99.90;;;;;;4906273;29;20224;-85
2023/01/03 08:51:35;;;;;;;72.35;16.35;;;7.30;99.90;;;;;;4923377;29;20200;-84
2023/01/03 08:54:01;;;;;;;69.37;13.67;;;7.30;99.90;;;;;;4923923;29;20534;-85
2023/01/03 08:56:27;;;;;;;69.77;13.07;;;7.30;99.90;;;;;;4923979;29;20165;-85
2023/01/03 08:58:56;;;;;;;71.45;17.83;;;7.40;99.90;;;;;;4906275;29;20173;-85
2023/01/03 09:01:25;;;;;;;75.53;17.67;;;7.40;99.90;;;;;;4906755;29;20205;-85
2023/01/03 09:03:51;;;;;;;68.70;14.65;;;7.40;99.90;;;;;;4923690;29;20204;-85
2023/01/03 09:06:17;;;;;;;72.07;18.08;;;7.50;99.90;;;;;;4906621;29;20180;-85
2023/01/03 09:08:43;;;;;;;69.55;17.15;;;7.60;99.90;;;;;;4924097;29;20187;-85
2023/01/03 09:11:09;;;;;;;73.87;17.50;;;7.60;99.90;;;;;;4905841;29;20756;-85
2023/01/03 09:13:35;;;;;;;70.13;18.93;;;7.70;99.90;;;;;;4923147;29;20409;-85
2023/01/03 09:16:09;;;;;;;74.00;15.32;;;7.80;99.90;;;;;;4923385;29;20406;-85
2023/01/03 09:18:36;;;;;;;71.80;15.00;;;7.90;99.90;;;;;;4906471;29;20217;-85
2023/01/03 09:21:02;;;;;;;69.63;13.18;;;8.00;99.90;;;;;;4922851;29;20192;-85
2023/01/03 09:23:29;;;;;;;68.25;13.10;;;8.10;99.90;;;;;;4923455;29;20641;-84
2023/01/03 09:25:55;;;;;;;70.30;13.43;;;8.30;99.90;;;;;;4906703;29;20652;-85
2023/01/03 09:28:22;;;;;;;67.90;12.60;;;8.30;99.90;;;;;;4906281;29;20177;-84
2023/01/03 09:30:48;;;;;;;68.70;13.43;;;8.40;99.90;;;;;;4906285;29;20244;-84
2023/01/03 09:33:14;;;;;;;68.90;14.23;;;8.50;99.90;;;;;;4923851;29;20236;-85
2023/01/03 09:35:39;;;;;;;72.57;17.35;;;8.50;99.90;;;;;;4922659;29;20405;-85
2023/01/03 09:38:05;;;;;;;69.60;13.67;;;8.60;99.90;;;;;;4923082;29;20225;-85
2023/01/03 09:40:36;;;;;;;68.60;11.73;;;8.70;99.90;;;;;;4905805;29;20219;-85
2023/01/03 09:43:13;;;;;;;68.28;10.10;;;8.80;99.90;;;;;;4905670;29;20260;-85
2023/01/03 09:45:45;;;;;;;67.55;10.65;;;8.80;99.90;;;;;;4922783;29;20160;-85
2023/01/03 09:48:17;;;;;;;66.45;9.43;;;8.90;99.90;;;;;;4922299;29;20495;-85
2023/01/03 09:50:44;;;;;;;67.35;10.50;;;8.90;99.90;;;;;;4922360;29;20200;-85
2023/01/03 10:04:53;;;;;;;69.63;14.65;;;9.10;99.90;;;;;;4922772;29;20169;-85
2023/01/03 10:07:32;;;;;;;67.38;14.02;;;9.20;99.90;;;;;;4923145;29;20176;-85
2023/01/03 10:10:35;;;;;;;66.28;7.85;;;9.10;99.90;;;;;;4905823;29;20188;-85
2023/01/03 10:13:28;;;;;;;67.55;9.90;;;9.20;99.90;;;;;;4905693;29;20181;-84
2023/01/03 10:16:05;;;;;;;67.28;8.65;;;9.30;99.90;;;;;;4906070;29;20169;-85
2023/01/03 10:18:47;;;;;;;67.45;8.85;;;9.30;99.90;;;;;;4906665;29;20219;-84
2023/01/03 10:21:18;;;;;;;71.45;12.88;;;9.40;99.90;;;;;;4924802;29;20604;-85
2023/01/03 10:23:49;;;;;;;65.55;7.72;;;9.50;99.90;;;;;;4925216;29;20149;-85
2023/01/03 10:26:15;;;;;;;66.15;7.55;;;9.50;99.90;;;;;;4907365;29;20189;-85
2023/01/03 10:28:44;;;;;;;67.33;11.23;;;9.50;99.90;;;;;;4923673;29;20235;-85
2023/01/03 10:31:22;;;;;;;68.90;7.53;;;9.70;99.90;;;;;;4923530;29;20284;-84
2023/01/03 10:33:49;;;;;;;67.22;9.35;;;9.70;99.90;;;;;;4906647;29;20165;-84
2023/01/03 10:36:18;;;;;;;69.13;9.95;;;9.70;99.90;;;;;;4923977;29;20172;-85
2023/01/03 10:38:46;;;;;;;69.00;9.23;;;9.80;99.90;;;;;;4988983;23;20317;-88
2023/01/03 10:41:42;;;;;;;67.80;8.85;;;9.90;99.90;;;;;;4900217;29;20239;-87
2023/01/03 10:44:28;;;;;;;67.72;7.80;;;10.00;99.90;;;;;;4899899;29;20174;-87
2023/01/03 10:46:57;;;;;;;70.43;9.35;;;10.00;99.90;;;;;;4900025;29;20622;-87
2023/01/03 10:49:25;;;;;;;67.63;8.18;;;10.00;99.90;;;;;;4899884;29;20196;-87
2023/01/03 10:51:57;;;;;;;67.97;8.10;;;10.00;99.90;;;;;;4899883;29;20197;-87
2023/01/03 10:54:41;;;;;;;68.25;9.43;;;10.10;99.90;;;;;;4899866;29;20180;-87
2023/01/03 10:57:06;;;;;;;66.93;5.35;;;10.10;99.90;;;;;;4900115;29;20169;-87
2023/01/03 10:59:33;;;;;;;68.07;7.30;;;10.10;99.90;;;;;;4918283;29;20307;-87
2023/01/03 11:02:15;;;;;;;67.10;6.35;;;10.20;99.90;;;;;;4903694;29;20188;-87
2023/01/03 11:04:42;;;;;;;66.70;6.30;;;10.30;99.90;;;;;;4903767;29;20207;-87
2023/01/03 11:07:07;;;;;;;74.40;17.83;;;10.40;99.90;;;;;;4920665;29;20652;-87
2023/01/03 11:09:49;;;;;;;66.60;5.30;;;10.40;99.90;;;;;;4903581;29;20193;-87
2023/01/03 11:12:35;;;;;;;65.45;5.57;;;10.40;99.90;;;;;;4904658;29;20580;-87
2023/01/03 11:15:13;;;;;;;64.88;5.07;;;10.40;98.20;;;;;;4922448;29;20206;-87
2023/01/03 11:17:55;;;;;;;65.40;5.30;;;10.40;96.10;;;;;;4922409;29;20153;-87
2023/01/03 11:20:48;;;;;;;65.63;5.82;;;10.40;96.70;;;;;;4923078;29;20264;-87
2023/01/03 11:23:27;;;;;;;67.20;4.80;;;10.40;93.30;;;;;;4895399;29;20545;-86
2023/01/03 11:26:04;;;;;;;66.60;5.75;;;10.50;97.50;;;;;;4922953;29;20244;-86
2023/01/03 11:28:55;;;;;;;66.85;5.25;;;10.60;95.50;;;;;;4924143;29;20153;-87
2023/01/03 11:31:37;;;;;;;66.55;5.10;;;10.60;96.00;;;;;;4905284;29;20209;-87
2023/01/03 11:34:18;;;;;;;66.43;5.10;;;10.70;94.10;;;;;;4904595;29;20174;-87
2023/01/03 11:36:58;;;;;;;72.50;5.28;;;10.70;91.80;;;;;;4922125;29;20154;-87
2023/01/03 11:39:48;;;;;;;67.30;5.07;;;10.70;92.40;;;;;;4922061;29;20192;-87
2023/01/03 11:42:54;;;;;;;68.00;6.32;;;10.80;92.90;;;;;;4905622;29;20180;-87
2023/01/03 11:45:49;;;;;;;67.18;8.93;;;11.00;88.60;;;;;;4905649;29;20264;-87
2023/01/03 11:48:42;;;;;;;67.07;9.07;;;11.10;79.60;;;;;;4906386;29;20173;-87
2023/01/03 11:51:25;;;;;;;66.97;9.02;;;11.20;82.50;;;;;;4921760;29;20196;-88
2023/01/03 11:54:10;;;;;;;70.13;5.90;;;11.30;69.70;;;;;;4904722;29;20180;-87
2023/01/03 11:56:47;;;;;;;67.97;5.03;;;11.40;69.90;;;;;;4904494;29;20528;-87
2023/01/03 11:59:19;;;;;;;67.72;5.25;;;11.40;70.30;;;;;;4904872;29;20572;-87
2023/01/03 12:02:13;;;;;;;65.97;6.35;;;11.50;63.50;;;;;;4921415;29;20597;-87
2023/01/03 12:04:54;;;;;;;65.95;5.38;;;11.50;69.10;;;;;;4885804;29;20189;-87
2023/01/03 12:07:33;;;;;;;68.10;5.50;;;11.30;67.50;;;;;;4921736;29;20213;-87
2023/01/03 12:10:20;;;;;;;67.57;4.88;;;11.20;65.30;;;;;;4923065;29;20195;-87
2023/01/03 12:13:16;;;;;;;65.07;6.20;;;11.20;71.10;;;;;;4904369;29;20244;-87
2023/01/03 12:15:50;;;;;;;65.47;5.55;;;11.30;72.50;;;;;;4921590;29;20189;-87
2023/01/03 12:18:41;;;;;;;66.88;5.45;;;11.30;67.00;;;;;;4905515;29;20193;-87
2023/01/03 12:21:16;;;;;;;68.70;7.50;;;11.10;67.90;;;;;;4909118;29;20201;-87
2023/01/03 12:23:49;;;;;;;68.72;7.18;;;11.20;68.80;;;;;;4904154;29;20260;-87
2023/01/03 12:26:16;;;;;;;67.78;6.65;;;11.30;71.00;;;;;;4921237;29;20153;-87
2023/01/03 12:28:50;;;;;;;67.35;7.75;;;11.20;64.50;;;;;;4903059;29;20174;-87
2023/01/03 12:31:25;;;;;;;67.07;6.47;;;11.20;69.00;;;;;;4920166;29;20277;-87
2023/01/03 12:33:57;;;;;;;68.05;6.63;;;11.10;63.30;;;;;;4904451;29;20175;-87
2023/01/03 12:36:34;;;;;;;69.38;8.35;;;11.20;71.30;;;;;;4921522;29;20633;-87
2023/01/03 12:39:20;;;;;;;74.90;9.10;;;11.20;73.10;;;;;;4902927;29;20189;-87
2023/01/03 12:42:00;;;;;;;65.95;7.82;;;11.30;72.70;;;;;;4866118;29;20188;-88
2023/01/03 12:44:33;;;;;;;65.30;6.80;;;11.30;66.40;;;;;;4920183;29;20158;-87
2023/01/03 12:47:01;;;;;;;69.18;7.93;;;11.30;56.80;;;;;;4919598;29;20252;-87
2023/01/03 12:50:05;;;;;;;67.93;8.48;;;11.20;62.00;;;;;;4902212;29;20205;-87
2023/01/03 12:52:33;;;;;;;66.82;7.30;;;11.30;59.90;;;;;;4881025;29;20219;-87
2023/01/03 12:55:18;;;;;;;66.70;6.82;;;11.20;57.90;;;;;;4919809;29;20169;-87
2023/01/03 12:58:18;;;;;;;68.53;5.30;;;11.10;55.10;;;;;;4919509;29;20700;-87
2023/01/03 13:00:59;;;;;;;65.30;4.07;;;10.90;44.90;;;;;;4903330;29;20261;-88
2023/01/03 13:03:40;;;;;;;64.88;4.22;;;10.90;39.00;;;;;;4902896;29;20172;-87
2023/01/03 13:06:36;;;;;;;68.05;4.43;;;10.90;34.70;;;;;;4920893;29;20190;-87
2023/01/03 13:09:18;;;;;;;66.85;4.60;;;10.80;39.00;;;;;;4920285;29;20511;-87
2023/01/03 13:11:53;;;;;;;67.60;4.05;;;10.70;32.60;;;;;;4920042;29;20200;-87
2023/01/03 13:14:22;;;;;;;66.97;4.65;;;10.80;40.80;;;;;;4920523;29;20569;-87
2023/01/03 13:16:52;;;;;;;66.32;4.40;;;10.80;39.50;;;;;;4920450;29;20185;-88
2023/01/03 13:19:24;;;;;;;65.20;3.97;;;10.90;44.80;;;;;;4904375;29;20177;-87
2023/01/03 13:21:52;;;;;;;67.47;4.45;;;11.00;41.90;;;;;;4922090;29;20198;-87
2023/01/03 13:24:44;;;;;;;66.28;4.05;;;11.00;39.40;;;;;;4921121;29;20175;-87
2023/01/03 13:27:16;;;;;;;64.70;4.03;;;11.10;35.70;;;;;;4902548;29;20178;-87
2023/01/03 13:29:48;;;;;;;65.53;4.20;;;11.10;33.20;;;;;;4903192;29;20297;-87
2023/01/03 13:32:22;;;;;;;65.20;4.40;;;11.10;32.70;;;;;;4920191;29;20185;-87
2023/01/03 13:35:00;;;;;;;65.43;3.78;;;11.30;34.10;;;;;;4918875;29;20161;-87
2023/01/03 13:37:42;;;;;;;65.38;4.63;;;11.30;36.40;;;;;;4902306;29;20220;-87
2023/01/03 13:40:15;;;;;;;64.78;3.60;;;11.30;38.20;;;;;;4901585;29;20681;-87
2023/01/03 13:42:42;;;;;;;65.05;3.63;;;11.30;30.10;;;;;;4901740;29;20639;-87
2023/01/03 13:45:22;;;;;;;67.15;5.30;;;11.20;26.80;;;;;;4919002;29;20160;-87
2023/01/03 13:47:50;;;;;;;66.03;3.92;;;11.30;29.40;;;;;;4902087;29;20189;-87
2023/01/03 13:50:27;;;;;;;64.95;3.53;;;11.30;27.60;;;;;;4918670;29;20185;-87
2023/01/03 13:53:10;;;;;;;65.10;3.50;;;11.30;20.90;;;;;;4919375;29;20157;-88
2023/01/03 13:55:46;;;;;;;70.65;3.97;;;11.20;20.20;;;;;;4902589;29;20189;-88
2023/01/03 13:58:26;;;;;;;65.70;3.67;;;11.20;24.80;;;;;;4902515;29;20175;-88